Дата Пункты Температура Давл., мм. Влажн., % Ветер Погодные явления
Воздуха Воды Направл. Скорость
20.06.18 03:00 Одесса 30.0 23.0 759 41 Ю 3 15 ЧАСОВ
20.06.18 12:00 Одесса 30.0 23.0 760 39 В 1 12 ЧАСОВ
20.06.18 09:00 Одесса 28.0 23.0 760 42 С 1 09 ЧАСОВ
20.06.18 06:00 Одесса 22.0 23.0 759 58 С-З 1 06 ЧАСОВ
20.06.18 03:00 Одесса 23.0 23.0 759 55 С-З 1 03 ЧАСА
19.06.18 09:00 Одесса 26.0 23.0 757 36 С 0 21 ЧАС
19.06.18 06:00 Одесса 30.0 23.0 757 22 Ю 2 18 ЧАСОВ
19.06.18 03:00 Одесса 30.0 23.0 758 20 Ю 2 15 ЧАСОВ
19.06.18 12:00 Одесса 28.0 23.0 758 36 В 1 12 ЧАСОВ
19.06.18 09:00 Одесса 26.0 23.0 758 44 С 1 09 ЧАСОВ
19.06.18 06:00 Одесса 20.0 23.0 757 56 С-З 2 06 ЧАСОВ
19.06.18 03:00 Одесса 20.0 23.0 756 56 С-З 1 03 ЧАСА
18.06.18 09:00 Одесса 23.0 24.0 755 29 С 0 21 ЧАС
18.06.18 06:00 Одесса 28.0 24.0 754 23 С 0 18 ЧАСОВ
18.06.18 03:00 Одесса 28.0 24.0 755 33 В 2 15 ЧАСОВ
18.06.18 12:00 Одесса 27.0 23.0 755 42 В 3 12 ЧАСОВ
18.06.18 09:00 Одесса 26.0 23.0 754 61 С 2 09 ЧАСОВ
18.06.18 06:00 Одесса 20.0 23.0 754 83 С 0 06 ЧАСОВ
18.06.18 03:00 Одесса 21.0 23.0 754 74 С 2 03 ЧАСА
17.06.18 09:00 Одесса 22.0 23.0 754 81 С-З 1 21 ЧАС
Количество строк
1 2 3 4 5 6 7 8 9 10
Page 10 of 382